Terminal Aerodrome Forecast
Issued by NWS

Home | Current Version | Previous Version | Text Only | Print | Product List | Glossary On
Versions: 1 2 3 4 5 6 7 8 9 10 11 12 13 14 15 16 17 18
000
FTUS46 KPDT 252300
TAFRDM
TAF
KRDM 252320Z 2600/2624 32008KT P6SM BKN040
     FM260200 30005KT P6SM BKN040
     FM260600 VRB04KT P6SM BKN040
     FM261400 VRB04KT 5SM BR SCT008 BKN030
     FM261800 VRB04KT P6SM SCT030
     FM262000 35005KT P6SM SCT200=

USA.gov is the U.S. government's official web portal to all federal, state and local government web resources and services.